Terminal Aerodrome Forecast
Issued by NWS

Current Version | Previous Version | Text Only | Print | Product List | Glossary Off
Versions: 1 2 3 4 5 6 7 8 9 10 11 12 13 14 15 16 17 18 19 20 21

000
FTUS41 KPBZ 282300
TAFHLG
TAF
KHLG 282338Z 2900/2924 VRB03KT P6SM BKN250
     FM291200 14006KT P6SM BKN080
     FM291600 19010G16KT 3SM -SHRASN OVC020
     FM291900 20010G16KT 2SM -SHRA BR OVC008=

USA.gov is the U.S. government's official web portal to all federal, state and local government web resources and services.